createdAt,value
2022-08-12T00:00:47.378Z,21.60
2022-08-12T00:03:32.820Z,21.58
2022-08-12T00:06:18.274Z,21.55
2022-08-12T00:09:03.603Z,21.51
2022-08-12T00:11:49.064Z,21.48
2022-08-12T00:14:34.388Z,21.41
2022-08-12T00:17:21.191Z,21.38
2022-08-12T00:20:08.369Z,21.38
2022-08-12T00:22:59.228Z,21.32
2022-08-12T00:26:20.636Z,21.29
2022-08-12T00:29:04.896Z,21.23
2022-08-12T00:31:50.217Z,21.22
2022-08-12T00:34:36.014Z,21.16
2022-08-12T00:37:21.593Z,21.11
2022-08-12T00:40:11.543Z,21.09
2022-08-12T00:42:41.205Z,21.03
2022-08-12T00:45:08.992Z,21.02
2022-08-12T00:47:36.220Z,21.00
2022-08-12T00:50:04.017Z,20.93
2022-08-12T00:52:30.986Z,20.93
2022-08-12T00:55:01.037Z,20.94
2022-08-12T00:57:35.681Z,20.90
2022-08-12T01:00:08.716Z,20.85
2022-08-12T01:02:38.907Z,20.82
2022-08-12T01:05:43.893Z,20.79
2022-08-12T01:08:30.214Z,20.71
2022-08-12T01:11:16.013Z,20.62
2022-08-12T01:13:47.776Z,20.60
2022-08-12T01:16:22.719Z,20.56
2022-08-12T01:18:51.981Z,20.54
2022-08-12T01:21:27.811Z,20.49
2022-08-12T01:24:32.272Z,20.45
2022-08-12T01:27:00.385Z,20.39
2022-08-12T01:29:33.122Z,20.36
2022-08-12T01:32:06.452Z,20.35
2022-08-12T01:34:39.456Z,20.35
2022-08-12T01:37:08.262Z,20.31
2022-08-12T01:39:39.061Z,20.26
2022-08-12T01:42:26.354Z,20.21
2022-08-12T01:44:56.473Z,20.16
2022-08-12T01:48:06.026Z,20.13
2022-08-12T01:50:33.433Z,20.09
2022-08-12T01:53:10.721Z,20.05
2022-08-12T01:55:40.897Z,20.03
2022-08-12T01:58:26.075Z,19.98
2022-08-12T02:01:01.517Z,19.92
2022-08-12T02:03:55.643Z,19.90
2022-08-12T02:07:05.187Z,19.84
2022-08-12T02:10:08.509Z,19.78
2022-08-12T02:12:47.820Z,19.74
2022-08-12T02:15:26.151Z,19.73
2022-08-12T02:18:17.201Z,19.68
2022-08-12T02:20:58.707Z,19.62
2022-08-12T02:23:27.484Z,19.61
2022-08-12T02:25:59.702Z,19.60
2022-08-12T02:28:27.000Z,19.62
2022-08-12T02:30:54.761Z,19.58
2022-08-12T02:33:21.674Z,19.56
2022-08-12T02:35:48.725Z,19.52
2022-08-12T02:38:16.162Z,19.49
2022-08-12T02:40:45.548Z,19.46
2022-08-12T02:43:33.086Z,19.43
2022-08-12T02:46:13.775Z,19.39
2022-08-12T02:48:45.933Z,19.35
2022-08-12T02:51:14.214Z,19.32
2022-08-12T02:53:41.038Z,19.26
2022-08-12T02:56:07.855Z,19.24
2022-08-12T02:58:36.094Z,19.21
2022-08-12T03:01:11.732Z,19.17
2022-08-12T03:03:40.225Z,19.12
2022-08-12T03:06:16.944Z,19.09
2022-08-12T03:08:47.086Z,19.07
2022-08-12T03:11:27.378Z,19.03
2022-08-12T03:14:00.522Z,19.01
2022-08-12T03:16:30.567Z,18.98
2022-08-12T03:19:00.182Z,18.95
2022-08-12T03:22:05.777Z,18.91
2022-08-12T03:24:17.412Z,18.87
2022-08-12T03:26:45.677Z,18.89
2022-08-12T03:29:12.803Z,18.85
2022-08-12T03:31:39.524Z,18.82
2022-08-12T03:34:08.671Z,18.79
2022-08-12T03:36:39.478Z,18.78
2022-08-12T03:39:18.768Z,18.76
2022-08-12T03:42:07.764Z,18.73
2022-08-12T03:44:59.767Z,18.67
2022-08-12T03:48:11.129Z,18.63
2022-08-12T03:51:04.166Z,18.61
2022-08-12T03:53:51.101Z,18.58
2022-08-12T03:56:37.025Z,18.58
2022-08-12T03:59:24.557Z,18.55
2022-08-12T04:01:58.352Z,18.53
2022-08-12T04:04:26.878Z,18.52
2022-08-12T04:06:54.947Z,18.52
2022-08-12T04:09:22.507Z,18.50
2022-08-12T04:12:08.898Z,18.51
2022-08-12T04:14:36.024Z,18.48
2022-08-12T04:17:04.207Z,18.48
2022-08-12T04:19:31.221Z,18.49
2022-08-12T04:22:02.384Z,18.50
2022-08-12T04:24:34.242Z,18.48
2022-08-12T04:27:00.969Z,18.47
2022-08-12T04:30:30.290Z,18.48
2022-08-12T04:32:14.483Z,18.50
2022-08-12T04:34:42.533Z,18.49
2022-08-12T04:37:09.241Z,18.51
2022-08-12T04:39:38.290Z,18.53
2022-08-12T04:42:05.086Z,18.55
2022-08-12T04:44:32.534Z,18.56
2022-08-12T04:46:59.254Z,18.61
2022-08-12T04:49:26.148Z,18.62
2022-08-12T04:51:55.209Z,18.64
2022-08-12T04:54:27.074Z,18.67
2022-08-12T04:57:03.718Z,18.72
2022-08-12T04:59:46.409Z,18.76
2022-08-12T05:02:17.072Z,18.80
2022-08-12T05:04:50.505Z,18.86
2022-08-12T05:07:17.437Z,18.95
2022-08-12T05:09:58.992Z,19.04
2022-08-12T05:12:33.583Z,19.18
2022-08-12T05:15:00.779Z,19.28
2022-08-12T05:17:28.039Z,19.41
2022-08-12T05:19:57.139Z,19.55
2022-08-12T05:22:26.071Z,19.68
2022-08-12T05:24:53.980Z,19.81
2022-08-12T05:27:23.044Z,19.92
2022-08-12T05:30:07.936Z,20.03
2022-08-12T05:32:36.694Z,20.10
2022-08-12T05:35:06.925Z,20.14
2022-08-12T05:37:35.014Z,20.25
2022-08-12T05:40:06.819Z,20.31
2022-08-12T05:42:35.394Z,20.38
2022-08-12T05:45:02.213Z,20.45
2022-08-12T05:47:42.519Z,20.39
2022-08-12T05:50:16.067Z,20.55
2022-08-12T05:52:42.818Z,20.57
2022-08-12T05:55:11.745Z,20.71
2022-08-12T05:57:39.210Z,20.91
2022-08-12T06:00:06.705Z,21.06
2022-08-12T06:02:38.361Z,21.19
2022-08-12T06:05:10.596Z,21.43
2022-08-12T06:08:01.131Z,21.68
2022-08-12T06:10:32.579Z,21.94
2022-08-12T06:13:04.996Z,22.19
2022-08-12T06:15:33.168Z,22.46
2022-08-12T06:18:13.900Z,22.80
2022-08-12T06:20:43.653Z,23.11
2022-08-12T06:23:11.571Z,23.42
2022-08-12T06:25:38.288Z,23.73
2022-08-12T06:28:15.691Z,23.97
2022-08-12T06:30:42.480Z,24.27
2022-08-12T06:34:01.091Z,24.52
2022-08-12T06:35:58.921Z,24.98
2022-08-12T06:38:26.916Z,25.14
2022-08-12T06:41:15.260Z,25.46
2022-08-12T06:44:06.921Z,25.78
2022-08-12T06:46:31.178Z,26.05
2022-08-12T06:49:01.745Z,26.38
2022-08-12T06:51:31.159Z,26.63
2022-08-12T06:53:58.741Z,26.86
2022-08-12T06:56:40.224Z,27.07
2022-08-12T06:59:14.857Z,27.36
2022-08-12T07:01:41.616Z,27.62
2022-08-12T07:04:36.893Z,27.77
2022-08-12T07:07:09.326Z,28.01
2022-08-12T07:10:01.422Z,28.32
2022-08-12T07:12:27.739Z,28.46
2022-08-12T07:14:56.705Z,28.56
2022-08-12T07:17:25.135Z,28.76
2022-08-12T07:19:53.874Z,28.95
2022-08-12T07:22:23.425Z,29.05
2022-08-12T07:25:10.484Z,29.42
2022-08-12T07:27:41.022Z,29.80
2022-08-12T07:30:09.981Z,30.09
2022-08-12T07:32:36.858Z,30.25
2022-08-12T07:35:04.271Z,30.49
2022-08-12T07:37:31.559Z,30.61
2022-08-12T07:40:00.280Z,30.86
2022-08-12T07:42:29.602Z,30.73
2022-08-12T07:44:56.715Z,30.83
2022-08-12T07:47:24.488Z,30.97
2022-08-12T07:50:04.303Z,31.02
2022-08-12T07:52:42.864Z,31.24
2022-08-12T07:55:10.864Z,31.19
2022-08-12T07:57:59.851Z,31.23
2022-08-12T08:00:29.229Z,31.43
2022-08-12T08:02:56.031Z,31.61
2022-08-12T08:05:24.520Z,31.75
2022-08-12T08:07:53.452Z,31.75
2022-08-12T08:10:21.177Z,31.85
2022-08-12T08:12:53.970Z,31.88
2022-08-12T08:15:44.559Z,31.97
2022-08-12T08:18:26.952Z,32.20
2022-08-12T08:20:55.418Z,32.35
2022-08-12T08:23:22.205Z,32.46
2022-08-12T08:25:56.610Z,32.78
2022-08-12T08:28:23.570Z,32.90
2022-08-12T08:30:50.485Z,32.90
2022-08-12T08:33:23.492Z,32.85
2022-08-12T08:36:07.636Z,32.96
2022-08-12T08:38:57.962Z,33.22
2022-08-12T08:42:15.825Z,33.29
2022-08-12T08:44:30.573Z,33.37
2022-08-12T08:46:57.372Z,33.66
2022-08-12T08:49:24.991Z,33.86
2022-08-12T08:51:51.716Z,33.93
2022-08-12T08:54:18.490Z,33.94
2022-08-12T08:56:50.258Z,34.02
2022-08-12T08:59:19.439Z,33.93
2022-08-12T09:01:47.307Z,34.18
2022-08-12T09:05:09.454Z,34.29
2022-08-12T09:07:16.850Z,34.53
2022-08-12T09:10:03.739Z,34.71
2022-08-12T09:12:55.034Z,34.65
2022-08-12T09:15:35.490Z,34.70
2022-08-12T09:18:12.036Z,34.60
2022-08-12T09:20:40.368Z,34.59
2022-08-12T09:25:58.458Z,34.94
2022-08-12T09:28:33.091Z,34.97
2022-08-12T09:31:00.474Z,35.14
2022-08-12T09:34:29.363Z,35.35
2022-08-12T09:36:31.024Z,35.37
2022-08-12T09:40:01.956Z,35.56
2022-08-12T09:42:54.107Z,35.72
2022-08-12T09:45:23.307Z,35.96
2022-08-12T09:47:59.656Z,35.62
2022-08-12T09:50:27.651Z,35.90
2022-08-12T09:54:31.443Z,35.89
2022-08-12T09:56:06.065Z,35.65
2022-08-12T09:58:57.595Z,35.75
2022-08-12T10:01:35.559Z,35.89
2022-08-12T10:04:15.072Z,35.93
2022-08-12T10:06:55.399Z,36.04
2022-08-12T10:09:28.303Z,36.16
2022-08-12T10:12:32.805Z,36.06
2022-08-12T10:15:00.186Z,36.49
2022-08-12T10:17:27.064Z,36.47
2022-08-12T10:19:53.891Z,36.32
2022-08-12T10:22:39.327Z,36.55
2022-08-12T10:26:35.906Z,36.86
2022-08-12T10:28:33.842Z,36.22
2022-08-12T10:31:01.392Z,36.85
2022-08-12T10:33:33.551Z,36.98
2022-08-12T10:36:02.054Z,37.10
2022-08-12T10:38:34.338Z,37.46
2022-08-12T10:41:57.892Z,37.75
2022-08-12T10:44:16.956Z,37.95
2022-08-12T10:46:49.818Z,37.94
2022-08-12T10:50:02.486Z,38.23
2022-08-12T10:52:34.552Z,38.19
2022-08-12T10:54:56.315Z,38.03
2022-08-12T10:58:14.363Z,37.77
2022-08-12T11:00:34.056Z,37.87
2022-08-12T11:04:22.637Z,38.15
2022-08-12T11:07:03.423Z,38.33
2022-08-12T11:08:43.218Z,38.37
2022-08-12T11:11:13.729Z,38.86
2022-08-12T11:13:49.035Z,39.12
2022-08-12T11:16:22.613Z,38.97
2022-08-12T11:18:55.156Z,39.24
2022-08-12T11:21:51.217Z,39.84
2022-08-12T11:24:18.725Z,40.08
2022-08-12T11:26:59.216Z,40.62
2022-08-12T11:29:27.298Z,40.97
2022-08-12T11:32:14.137Z,41.32
2022-08-12T11:34:52.924Z,41.37
2022-08-12T11:37:25.875Z,41.84
2022-08-12T11:42:46.029Z,42.11
2022-08-12T11:45:16.352Z,41.69
2022-08-12T11:47:44.050Z,40.74
2022-08-12T11:50:11.856Z,39.73
2022-08-12T11:52:55.649Z,38.85
2022-08-12T11:55:24.775Z,38.84
2022-08-12T11:58:42.352Z,39.51
2022-08-12T12:03:43.705Z,40.06
2022-08-12T12:06:18.002Z,38.66
2022-08-12T12:08:50.900Z,37.96
2022-08-12T12:11:18.894Z,36.80
2022-08-12T12:14:07.813Z,36.32
2022-08-12T12:16:33.638Z,36.60
2022-08-12T12:19:05.792Z,37.66
2022-08-12T12:21:48.619Z,38.92
2022-08-12T12:24:21.736Z,38.94
2022-08-12T12:27:00.046Z,38.18
2022-08-12T12:30:13.914Z,37.97
2022-08-12T12:32:19.420Z,38.18
2022-08-12T12:35:14.041Z,37.85
2022-08-12T12:38:04.554Z,36.83
2022-08-12T12:40:39.760Z,36.14
2022-08-12T12:43:07.289Z,36.08
2022-08-12T12:45:35.701Z,35.63
2022-08-12T12:48:02.426Z,35.13
2022-08-12T12:50:45.254Z,34.41
2022-08-12T12:54:07.030Z,33.67
2022-08-12T12:56:21.181Z,33.17
2022-08-12T12:59:02.794Z,32.89
2022-08-12T13:01:30.908Z,33.60
2022-08-12T13:04:02.482Z,34.46
2022-08-12T13:06:31.424Z,35.92
2022-08-12T13:09:02.625Z,36.47
2022-08-12T13:11:40.834Z,36.43
2022-08-12T13:14:29.103Z,35.81
2022-08-12T13:17:02.728Z,35.15
2022-08-12T13:19:37.829Z,34.62
2022-08-12T13:22:23.526Z,33.89
2022-08-12T13:24:56.212Z,33.65
2022-08-12T13:27:35.021Z,33.12
2022-08-12T13:30:10.782Z,32.58
2022-08-12T13:32:56.664Z,32.65
2022-08-12T13:36:04.931Z,32.25
2022-08-12T13:38:39.478Z,32.58
2022-08-12T13:41:11.197Z,32.59
2022-08-12T13:43:40.817Z,32.90
2022-08-12T13:46:12.044Z,32.58
2022-08-12T13:48:45.070Z,32.75
2022-08-12T13:51:13.421Z,32.68
2022-08-12T13:53:57.633Z,32.66
2022-08-12T13:56:29.901Z,32.37
2022-08-12T13:59:02.656Z,32.28
2022-08-12T14:01:30.957Z,31.91
2022-08-12T14:04:04.490Z,31.90
2022-08-12T14:06:32.047Z,32.01
2022-08-12T14:08:59.658Z,31.90
2022-08-12T14:11:27.939Z,32.00
2022-08-12T14:14:03.662Z,32.12
2022-08-12T14:16:48.960Z,31.96
2022-08-12T14:19:25.569Z,32.07
2022-08-12T14:22:04.476Z,32.06
2022-08-12T14:24:41.040Z,32.01
2022-08-12T14:27:10.276Z,31.84
2022-08-12T14:30:06.043Z,31.85
2022-08-12T14:32:35.564Z,31.69
2022-08-12T14:35:09.450Z,31.66
2022-08-12T14:37:54.871Z,31.46
2022-08-12T14:40:27.492Z,31.27
2022-08-12T14:42:55.071Z,31.16
2022-08-12T14:45:37.016Z,31.22
2022-08-12T14:48:12.673Z,31.28
2022-08-12T14:51:09.520Z,31.11
2022-08-12T14:59:24.128Z,31.16
2022-08-12T15:01:51.998Z,31.15
2022-08-12T15:04:26.213Z,31.22
2022-08-12T15:06:53.338Z,31.22
2022-08-12T15:09:29.140Z,31.28
2022-08-12T15:12:04.133Z,31.24
2022-08-12T15:14:31.832Z,31.44
2022-08-12T15:17:00.236Z,31.47
2022-08-12T15:20:30.870Z,31.32
2022-08-12T15:22:38.834Z,31.31
2022-08-12T15:25:07.188Z,31.51
2022-08-12T15:28:05.230Z,31.39
2022-08-12T15:30:31.360Z,31.38
2022-08-12T15:32:58.489Z,31.21
2022-08-12T15:35:38.101Z,31.27
2022-08-12T15:38:18.667Z,31.09
2022-08-12T15:40:50.110Z,30.79
2022-08-12T15:43:35.571Z,30.87
2022-08-12T15:46:06.439Z,30.73
2022-08-12T15:48:34.161Z,30.76
2022-08-12T15:51:02.827Z,30.77
2022-08-12T15:53:53.173Z,30.69
2022-08-12T15:56:29.585Z,30.70
2022-08-12T15:58:59.001Z,30.38
2022-08-12T16:01:35.720Z,30.31
2022-08-12T16:04:05.507Z,30.51
2022-08-12T16:09:45.394Z,30.65
2022-08-12T16:12:11.243Z,30.61
2022-08-12T16:14:39.043Z,30.60
2022-08-12T16:17:08.988Z,30.65
2022-08-12T16:20:04.002Z,30.53
2022-08-12T16:22:26.491Z,30.44
2022-08-12T16:24:54.212Z,30.35
2022-08-12T16:27:23.890Z,30.39
2022-08-12T16:29:57.401Z,30.52
2022-08-12T16:32:31.805Z,30.57
2022-08-12T16:34:59.915Z,30.80
2022-08-12T16:37:32.415Z,30.74
2022-08-12T16:40:04.796Z,30.72
2022-08-12T16:42:39.206Z,30.73
2022-08-12T16:45:13.782Z,30.76
2022-08-12T16:47:58.670Z,30.68
2022-08-12T16:50:30.901Z,30.45
2022-08-12T16:53:02.165Z,30.30
2022-08-12T16:55:42.521Z,30.15
2022-08-12T16:58:28.554Z,30.12
2022-08-12T17:00:58.808Z,29.97
2022-08-12T17:03:30.567Z,30.04
2022-08-12T17:05:57.383Z,30.03
2022-08-12T17:08:29.170Z,29.92
2022-08-12T17:10:56.456Z,29.82
2022-08-12T17:13:26.358Z,29.66
2022-08-12T17:16:04.809Z,29.70
2022-08-12T17:18:43.430Z,29.79
2022-08-12T17:21:19.531Z,29.91
2022-08-12T17:23:53.495Z,29.84
2022-08-12T17:26:22.464Z,29.74
2022-08-12T17:28:56.268Z,29.78
2022-08-12T17:31:59.566Z,29.80
2022-08-12T17:34:30.039Z,29.76
2022-08-12T17:36:56.859Z,29.69
2022-08-12T17:40:06.221Z,29.72
2022-08-12T17:42:34.907Z,29.62
2022-08-12T17:45:17.165Z,29.52
2022-08-12T17:48:01.842Z,29.46
2022-08-12T17:50:34.614Z,29.53
2022-08-12T17:53:02.965Z,29.45
2022-08-12T17:55:43.501Z,29.43
2022-08-12T17:58:14.399Z,29.27
2022-08-12T18:00:43.798Z,29.20
2022-08-12T18:03:12.647Z,29.20
2022-08-12T18:06:07.663Z,29.27
2022-08-12T18:08:35.809Z,29.24
2022-08-12T18:12:05.380Z,29.26
2022-08-12T18:14:09.415Z,29.17
2022-08-12T18:16:41.330Z,29.14
2022-08-12T18:19:09.068Z,29.07
2022-08-12T18:22:02.274Z,29.03
2022-08-12T18:24:26.447Z,28.91
2022-08-12T18:26:56.717Z,28.89
2022-08-12T18:29:27.151Z,28.78
2022-08-12T18:32:35.098Z,28.70
2022-08-12T18:34:57.889Z,28.62
2022-08-12T18:37:41.724Z,28.54
2022-08-12T18:40:27.835Z,28.45
2022-08-12T18:42:54.814Z,28.34
2022-08-12T18:45:31.420Z,28.25
2022-08-12T18:48:13.674Z,28.13
2022-08-12T18:50:49.399Z,28.04
2022-08-12T18:54:07.241Z,27.94
2022-08-12T18:56:07.462Z,27.83
2022-08-12T18:58:59.947Z,27.71
2022-08-12T19:02:22.225Z,27.61
2022-08-12T19:04:15.804Z,27.51
2022-08-12T19:06:46.485Z,27.40
2022-08-12T19:09:15.093Z,27.30
2022-08-12T19:12:00.981Z,27.22
2022-08-12T19:14:32.759Z,27.10
2022-08-12T19:17:05.240Z,27.02
2022-08-12T19:19:37.259Z,26.93
2022-08-12T19:22:08.480Z,26.84
2022-08-12T19:24:53.979Z,26.76
2022-08-12T19:27:21.652Z,26.66
2022-08-12T19:30:06.167Z,26.56
2022-08-12T19:32:34.356Z,26.49
2022-08-12T19:38:04.145Z,26.33
2022-08-12T19:40:37.251Z,26.24
2022-08-12T19:43:19.480Z,26.18
2022-08-12T19:45:53.655Z,26.09
2022-08-12T19:48:22.923Z,26.05
2022-08-12T19:50:53.563Z,25.99
2022-08-12T19:53:23.070Z,25.95
2022-08-12T19:55:54.830Z,25.91
2022-08-12T19:58:23.064Z,25.86
2022-08-12T20:00:53.229Z,25.79
2022-08-12T20:03:39.526Z,25.73
2022-08-12T20:06:13.796Z,25.67
2022-08-12T20:08:49.312Z,25.61
2022-08-12T20:12:14.050Z,25.56
2022-08-12T20:14:10.326Z,25.50
2022-08-12T20:16:54.395Z,25.48
2022-08-12T20:19:52.718Z,25.42
2022-08-12T20:22:30.022Z,25.36
2022-08-12T20:25:01.716Z,25.30
2022-08-12T20:28:02.415Z,25.26
2022-08-12T20:30:20.777Z,25.19
2022-08-12T20:33:17.872Z,25.14
2022-08-12T20:36:13.836Z,25.12
2022-08-12T20:38:35.695Z,25.07
2022-08-12T20:41:16.765Z,25.01
2022-08-12T20:43:45.990Z,24.97
2022-08-12T20:46:13.708Z,24.93
2022-08-12T20:48:43.672Z,24.87
2022-08-12T20:51:15.829Z,24.84
2022-08-12T20:53:58.179Z,24.79
2022-08-12T20:56:37.008Z,24.75
2022-08-12T20:59:07.160Z,24.69
2022-08-12T21:01:46.034Z,24.62
2022-08-12T21:04:32.735Z,24.55
2022-08-12T21:07:08.299Z,24.51
2022-08-12T21:09:40.634Z,24.45
2022-08-12T21:12:24.782Z,24.40
2022-08-12T21:15:17.128Z,24.36
2022-08-12T21:18:01.148Z,24.30
2022-08-12T21:20:35.620Z,24.25
2022-08-12T21:23:05.831Z,24.18
2022-08-12T21:25:44.108Z,24.12
2022-08-12T21:28:13.263Z,24.08
2022-08-12T21:31:10.540Z,24.04
2022-08-12T21:33:58.436Z,23.98
2022-08-12T21:36:22.882Z,23.92
2022-08-12T21:39:19.201Z,23.87
2022-08-12T21:41:53.640Z,23.84
2022-08-12T21:45:47.442Z,23.78
2022-08-12T21:47:22.437Z,23.75
2022-08-12T21:50:06.502Z,23.69
2022-08-12T21:52:48.990Z,23.65
2022-08-12T21:55:17.668Z,23.58
2022-08-12T21:57:53.196Z,23.55
2022-08-12T22:00:31.819Z,23.52
2022-08-12T22:04:03.895Z,23.44
2022-08-12T22:06:26.109Z,23.40
2022-08-12T22:09:03.918Z,23.35
2022-08-12T22:11:42.156Z,23.32
2022-08-12T22:14:21.933Z,23.29
2022-08-12T22:16:52.140Z,23.28
2022-08-12T22:19:22.968Z,23.29
2022-08-12T22:21:54.759Z,23.26
2022-08-12T22:24:26.483Z,23.23
2022-08-12T22:26:56.182Z,23.21
2022-08-12T22:29:42.418Z,23.17
2022-08-12T22:32:11.277Z,23.15
2022-08-12T22:34:39.000Z,23.14
2022-08-12T22:37:11.527Z,23.09
2022-08-12T22:39:48.969Z,23.15
2022-08-12T22:42:35.146Z,23.12
2022-08-12T22:45:23.050Z,23.08
2022-08-12T22:47:54.913Z,23.05
2022-08-12T22:50:27.792Z,23.05
2022-08-12T22:53:17.284Z,23.02
2022-08-12T22:56:00.450Z,22.96
2022-08-12T22:58:33.965Z,22.93
2022-08-12T23:01:02.318Z,22.89
2022-08-12T23:03:49.620Z,22.87
2022-08-12T23:06:23.848Z,22.83
2022-08-12T23:08:54.811Z,22.80
2022-08-12T23:11:25.411Z,22.78
2022-08-12T23:14:04.265Z,22.74
2022-08-12T23:16:34.153Z,22.70
2022-08-12T23:19:17.842Z,22.67
2022-08-12T23:22:06.456Z,22.63
2022-08-12T23:24:53.732Z,22.58
2022-08-12T23:27:50.336Z,22.55
2022-08-12T23:30:25.133Z,22.51
2022-08-12T23:32:59.885Z,22.49
2022-08-12T23:35:53.696Z,22.47
2022-08-12T23:38:30.354Z,22.43
2022-08-12T23:40:59.947Z,22.41
2022-08-12T23:43:39.206Z,22.42
2022-08-12T23:46:11.305Z,22.42
2022-08-12T23:48:38.918Z,22.40
2022-08-12T23:51:22.094Z,22.37
2022-08-12T23:53:51.048Z,22.30
2022-08-12T23:56:18.090Z,22.33
2022-08-12T23:58:52.649Z,22.29
